createdAt,value
2022-10-13T00:01:00.471Z,4.82
2022-10-13T00:03:27.437Z,4.68
2022-10-13T00:05:54.343Z,3.60
2022-10-13T00:08:22.200Z,4.78
2022-10-13T00:10:50.938Z,4.75
2022-10-13T00:13:22.568Z,5.50
2022-10-13T00:15:49.497Z,4.68
2022-10-13T00:18:17.025Z,4.90
2022-10-13T00:23:15.881Z,4.35
2022-10-13T00:25:46.816Z,4.93
2022-10-13T00:28:15.337Z,5.20
2022-10-13T00:30:42.739Z,5.28
2022-10-13T00:33:10.764Z,4.72
2022-10-13T00:35:43.133Z,4.68
2022-10-13T00:38:11.732Z,5.07
2022-10-13T00:40:52.712Z,4.72
2022-10-13T00:43:23.143Z,4.32
2022-10-13T00:45:51.033Z,4.82
2022-10-13T00:48:28.075Z,4.68
2022-10-13T00:50:58.183Z,4.65
2022-10-13T00:53:30.650Z,4.25
2022-10-13T00:55:57.660Z,4.18
2022-10-13T00:58:31.192Z,4.05
2022-10-13T01:00:58.878Z,4.43
2022-10-13T01:03:26.838Z,3.97
2022-10-13T01:05:57.881Z,4.97
2022-10-13T01:08:27.039Z,3.95
2022-10-13T01:11:01.641Z,4.50
2022-10-13T01:13:41.261Z,4.68
2022-10-13T01:16:43.911Z,4.05
2022-10-13T01:19:43.082Z,3.95
2022-10-13T01:22:31.714Z,4.07
2022-10-13T01:25:32.017Z,4.20
2022-10-13T01:28:04.776Z,5.53
2022-10-13T01:30:45.338Z,4.82
2022-10-13T01:33:32.507Z,4.03
2022-10-13T01:36:11.413Z,4.13
2022-10-13T01:38:46.343Z,3.92
2022-10-13T01:41:38.379Z,4.00
2022-10-13T01:44:25.132Z,4.25
2022-10-13T01:46:55.125Z,4.30
2022-10-13T01:49:27.160Z,3.83
2022-10-13T01:51:56.241Z,3.75
2022-10-13T01:54:23.090Z,3.50
2022-10-13T01:56:54.312Z,3.28
2022-10-13T01:59:22.618Z,4.10
2022-10-13T02:02:18.081Z,3.90
2022-10-13T02:05:09.868Z,4.07
2022-10-13T02:07:53.217Z,4.07
2022-10-13T02:10:39.327Z,4.43
2022-10-13T02:13:07.905Z,3.47
2022-10-13T02:15:47.654Z,4.28
2022-10-13T02:18:18.731Z,4.57
2022-10-13T02:20:46.342Z,4.15
2022-10-13T02:23:16.368Z,3.88
2022-10-13T02:25:44.402Z,4.25
2022-10-13T02:28:14.143Z,4.13
2022-10-13T02:30:45.575Z,4.65
2022-10-13T02:33:13.385Z,4.10
2022-10-13T02:35:41.189Z,3.75
2022-10-13T02:38:08.481Z,4.43
2022-10-13T02:40:36.823Z,3.85
2022-10-13T02:43:04.060Z,4.18
2022-10-13T02:45:30.953Z,4.30
2022-10-13T02:47:58.288Z,4.28
2022-10-13T02:52:53.493Z,4.03
2022-10-13T02:55:20.522Z,4.45
2022-10-13T02:57:51.988Z,4.65
2022-10-13T03:00:19.005Z,4.63
2022-10-13T03:02:45.900Z,4.30
2022-10-13T03:05:12.954Z,4.80
2022-10-13T03:07:39.844Z,3.45
2022-10-13T03:10:07.594Z,3.88
2022-10-13T03:12:34.697Z,4.18
2022-10-13T03:15:01.725Z,3.95
2022-10-13T03:17:28.606Z,4.22
2022-10-13T03:19:55.778Z,4.45
2022-10-13T03:22:23.051Z,4.25
2022-10-13T03:24:52.183Z,4.05
2022-10-13T03:27:19.473Z,3.95
2022-10-13T03:29:46.364Z,4.40
2022-10-13T03:32:13.316Z,4.07
2022-10-13T03:34:40.257Z,4.30
2022-10-13T03:37:07.163Z,4.00
2022-10-13T03:39:41.865Z,3.50
2022-10-13T03:44:37.094Z,3.58
2022-10-13T03:47:04.363Z,4.28
2022-10-13T03:49:31.305Z,4.68
2022-10-13T03:51:58.159Z,4.43
2022-10-13T03:54:25.071Z,4.28
2022-10-13T03:56:53.306Z,4.45
2022-10-13T03:59:21.654Z,4.75
2022-10-13T04:01:48.544Z,4.13
2022-10-13T04:04:15.443Z,4.40
2022-10-13T04:06:43.512Z,3.40
2022-10-13T04:09:10.411Z,4.65
2022-10-13T04:11:37.335Z,4.63
2022-10-13T04:14:04.546Z,2.78
2022-10-13T04:16:31.803Z,4.50
2022-10-13T04:19:01.977Z,4.20
2022-10-13T04:21:33.826Z,4.00
2022-10-13T04:24:01.686Z,4.10
2022-10-13T04:26:31.242Z,3.83
2022-10-13T04:28:59.044Z,4.00
2022-10-13T04:33:54.878Z,3.13
2022-10-13T04:36:22.172Z,4.70
2022-10-13T04:38:50.740Z,3.35
2022-10-13T04:41:18.894Z,4.30
2022-10-13T04:43:50.320Z,3.55
2022-10-13T04:46:22.524Z,4.15
2022-10-13T04:48:52.328Z,4.57
2022-10-13T04:51:24.051Z,3.72
2022-10-13T04:54:03.252Z,2.92
2022-10-13T04:59:05.821Z,4.25
2022-10-13T05:01:33.793Z,3.85
2022-10-13T05:04:03.134Z,3.95
2022-10-13T05:06:53.269Z,4.40
2022-10-13T05:09:24.722Z,3.45
2022-10-13T05:11:51.832Z,3.45
2022-10-13T05:14:18.800Z,4.40
2022-10-13T05:16:45.650Z,4.15
2022-10-13T05:19:15.604Z,4.35
2022-10-13T05:21:42.578Z,3.97
2022-10-13T05:24:13.461Z,4.85
2022-10-13T05:26:41.117Z,3.63
2022-10-13T05:29:08.366Z,4.38
2022-10-13T05:31:36.225Z,3.90
2022-10-13T05:34:03.280Z,4.47
2022-10-13T05:36:32.605Z,4.28
2022-10-13T05:39:04.555Z,3.40
2022-10-13T05:41:31.580Z,3.72
2022-10-13T05:44:04.791Z,4.20
2022-10-13T05:46:31.943Z,4.18
2022-10-13T05:48:58.864Z,4.43
2022-10-13T05:51:39.147Z,3.53
2022-10-13T05:54:40.924Z,3.67
2022-10-13T05:57:11.768Z,3.05
2022-10-13T05:59:43.271Z,4.03
2022-10-13T06:02:12.291Z,3.47
2022-10-13T06:04:46.354Z,2.92
2022-10-13T06:07:14.331Z,3.38
2022-10-13T06:09:42.737Z,3.75
2022-10-13T06:12:10.349Z,3.25
2022-10-13T06:14:37.396Z,3.38
2022-10-13T06:17:07.096Z,3.88
2022-10-13T06:19:34.081Z,4.18
2022-10-13T06:22:07.996Z,3.22
2022-10-13T06:24:35.107Z,2.88
2022-10-13T06:27:04.112Z,3.42
2022-10-13T06:29:32.865Z,3.65
2022-10-13T06:31:59.809Z,3.65
2022-10-13T06:34:26.843Z,3.40
2022-10-13T06:36:53.806Z,3.28
2022-10-13T06:39:20.924Z,3.13
2022-10-13T06:41:48.232Z,2.90
2022-10-13T06:44:15.155Z,3.15
2022-10-13T06:46:42.118Z,3.08
2022-10-13T06:49:10.326Z,3.72
2022-10-13T06:51:37.397Z,4.63
2022-10-13T06:54:04.336Z,3.40
2022-10-13T06:56:33.759Z,3.90
2022-10-13T06:59:06.770Z,3.70
2022-10-13T07:01:41.248Z,4.03
2022-10-13T07:04:10.397Z,3.28
2022-10-13T07:06:37.274Z,3.60
2022-10-13T07:09:08.556Z,3.50
2022-10-13T07:11:35.853Z,3.95
2022-10-13T07:14:03.166Z,3.60
2022-10-13T07:18:56.968Z,3.17
2022-10-13T07:21:23.896Z,3.08
2022-10-13T07:23:52.937Z,3.78
2022-10-13T07:26:20.140Z,3.17
2022-10-13T07:28:47.170Z,3.40
2022-10-13T07:31:17.252Z,3.28
2022-10-13T07:33:46.122Z,3.97
2022-10-13T07:36:15.330Z,3.40
2022-10-13T07:38:45.474Z,2.75
2022-10-13T07:41:13.585Z,3.75
2022-10-13T07:43:41.338Z,3.40
2022-10-13T07:46:08.707Z,3.13
2022-10-13T07:51:08.315Z,3.40
2022-10-13T07:53:36.029Z,3.85
2022-10-13T07:56:05.407Z,3.28
2022-10-13T07:58:33.531Z,3.03
2022-10-13T08:01:01.948Z,3.50
2022-10-13T08:03:30.226Z,2.92
2022-10-13T08:06:00.476Z,3.05
2022-10-13T08:08:27.912Z,3.05
2022-10-13T08:10:55.243Z,2.42
2022-10-13T08:13:23.658Z,3.50
2022-10-13T08:15:50.576Z,3.22
2022-10-13T08:18:17.484Z,3.40
2022-10-13T08:20:45.936Z,3.25
2022-10-13T08:23:13.677Z,2.60
2022-10-13T08:25:48.670Z,2.85
2022-10-13T08:28:24.005Z,3.67
2022-10-13T08:30:51.944Z,3.65
2022-10-13T08:33:19.788Z,4.03
2022-10-13T08:35:47.003Z,2.78
2022-10-13T08:38:14.237Z,3.58
2022-10-13T08:40:45.678Z,2.92
2022-10-13T08:43:18.378Z,3.75
2022-10-13T08:45:48.169Z,2.65
2022-10-13T08:48:32.597Z,3.28
2022-10-13T08:51:05.813Z,4.32
2022-10-13T08:53:43.062Z,3.92
2022-10-13T08:56:09.906Z,3.40
2022-10-13T08:58:39.382Z,3.55
2022-10-13T09:01:23.806Z,2.95
2022-10-13T09:03:56.676Z,3.60
2022-10-13T09:06:37.880Z,3.17
2022-10-13T09:09:15.553Z,3.08
2022-10-13T09:14:23.672Z,3.53
2022-10-13T09:16:52.380Z,3.65
2022-10-13T09:19:24.143Z,2.95
2022-10-13T09:21:54.176Z,2.55
2022-10-13T09:24:22.600Z,3.05
2022-10-13T09:27:01.228Z,2.78
2022-10-13T09:29:28.211Z,2.75
2022-10-13T09:32:14.661Z,3.38
2022-10-13T09:34:41.663Z,3.35
2022-10-13T09:37:21.718Z,2.83
2022-10-13T09:40:02.274Z,2.58
2022-10-13T09:42:31.830Z,3.60
2022-10-13T09:45:14.962Z,2.58
2022-10-13T09:47:49.697Z,2.50
2022-10-13T09:50:19.288Z,2.67
2022-10-13T09:52:47.620Z,2.75
2022-10-13T09:55:33.989Z,3.20
2022-10-13T09:58:07.151Z,2.90
2022-10-13T10:00:34.252Z,2.40
2022-10-13T10:03:17.165Z,3.28
2022-10-13T10:05:57.241Z,2.83
2022-10-13T10:08:33.346Z,2.15
2022-10-13T10:11:10.408Z,3.30
2022-10-13T10:13:37.332Z,2.78
2022-10-13T10:16:21.442Z,2.90
2022-10-13T10:19:00.417Z,3.17
2022-10-13T10:21:46.308Z,2.45
2022-10-13T10:24:35.244Z,2.70
2022-10-13T10:27:08.235Z,2.35
2022-10-13T10:30:02.359Z,2.70
2022-10-13T10:32:34.965Z,2.03
2022-10-13T10:35:16.132Z,2.90
2022-10-13T10:37:57.647Z,2.63
2022-10-13T10:40:35.951Z,2.47
2022-10-13T10:43:29.256Z,2.50
2022-10-13T10:45:58.597Z,3.10
2022-10-13T10:48:38.733Z,2.50
2022-10-13T10:51:12.866Z,3.30
2022-10-13T10:53:55.015Z,2.83
2022-10-13T10:56:39.504Z,2.88
2022-10-13T10:59:36.324Z,2.28
2022-10-13T11:02:35.225Z,2.25
2022-10-13T11:05:05.434Z,2.63
2022-10-13T11:07:33.379Z,2.50
2022-10-13T11:10:01.329Z,2.97
2022-10-13T11:12:45.912Z,3.42
2022-10-13T11:15:20.011Z,3.08
2022-10-13T11:17:46.897Z,3.28
2022-10-13T11:20:19.896Z,3.13
2022-10-13T11:22:59.096Z,2.97
2022-10-13T11:25:42.601Z,2.53
2022-10-13T11:28:41.756Z,2.65
2022-10-13T11:31:14.756Z,2.90
2022-10-13T11:33:41.809Z,2.72
2022-10-13T11:36:41.586Z,2.90
2022-10-13T11:42:09.163Z,2.88
2022-10-13T11:45:17.151Z,2.28
2022-10-13T11:47:59.982Z,2.30
2022-10-13T11:50:40.463Z,2.60
2022-10-13T11:53:27.626Z,2.25
2022-10-13T11:55:59.222Z,2.35
2022-10-13T11:58:33.443Z,1.92
2022-10-13T12:01:11.814Z,2.13
2022-10-13T12:03:41.953Z,2.05
2022-10-13T12:06:20.704Z,1.92
2022-10-13T12:08:52.365Z,2.55
2022-10-13T12:11:28.822Z,2.25
2022-10-13T12:13:56.946Z,2.35
2022-10-13T12:16:24.095Z,1.92
2022-10-13T12:18:51.127Z,2.33
2022-10-13T12:21:21.117Z,2.35
2022-10-13T12:23:50.375Z,2.55
2022-10-13T12:26:24.187Z,2.10
2022-10-13T12:28:57.159Z,1.98
2022-10-13T12:31:42.680Z,2.78
2022-10-13T12:34:21.769Z,1.95
2022-10-13T12:36:56.712Z,2.22
2022-10-13T12:39:25.451Z,1.95
2022-10-13T12:41:53.381Z,1.98
2022-10-13T12:44:23.913Z,2.33
2022-10-13T12:46:56.119Z,2.70
2022-10-13T12:49:36.646Z,2.65
2022-10-13T12:52:09.553Z,2.00
2022-10-13T12:54:46.926Z,1.85
2022-10-13T12:57:21.759Z,2.63
2022-10-13T12:59:49.204Z,2.38
2022-10-13T13:02:24.078Z,2.55
2022-10-13T13:04:51.543Z,2.65
2022-10-13T13:07:33.217Z,2.30
2022-10-13T13:10:18.158Z,2.55
2022-10-13T13:12:46.576Z,2.88
2022-10-13T13:15:25.247Z,2.55
2022-10-13T13:17:58.387Z,2.90
2022-10-13T13:20:29.387Z,2.15
2022-10-13T13:22:56.961Z,2.90
2022-10-13T13:25:24.492Z,3.08
2022-10-13T13:27:52.557Z,2.90
2022-10-13T13:30:22.042Z,2.47
2022-10-13T13:32:50.007Z,2.30
2022-10-13T13:35:17.472Z,2.75
2022-10-13T13:37:51.020Z,2.33
2022-10-13T13:40:26.593Z,2.08
2022-10-13T13:42:54.485Z,2.80
2022-10-13T13:45:27.443Z,2.65
2022-10-13T13:47:59.529Z,2.33
2022-10-13T13:50:33.968Z,2.67
2022-10-13T13:53:01.233Z,2.85
2022-10-13T13:55:29.719Z,2.78
2022-10-13T13:57:57.625Z,3.13
2022-10-13T14:00:24.988Z,3.13
2022-10-13T14:02:56.479Z,3.10
2022-10-13T14:05:23.732Z,3.05
2022-10-13T14:07:53.871Z,3.78
2022-10-13T14:10:20.774Z,2.80
2022-10-13T14:12:47.670Z,3.10
2022-10-13T14:15:14.725Z,3.42
2022-10-13T14:17:41.693Z,3.85
2022-10-13T14:20:09.383Z,3.30
2022-10-13T14:22:40.951Z,4.35
2022-10-13T14:25:08.268Z,3.90
2022-10-13T14:30:08.804Z,4.30
2022-10-13T14:32:38.738Z,3.97
2022-10-13T14:35:06.594Z,4.60
2022-10-13T14:37:34.133Z,4.28
2022-10-13T14:40:01.466Z,3.50
2022-10-13T14:42:28.597Z,4.45
2022-10-13T14:44:55.485Z,4.47
2022-10-13T14:47:22.865Z,4.82
2022-10-13T14:49:50.073Z,3.65
2022-10-13T14:52:16.971Z,4.53
2022-10-13T14:54:45.074Z,4.88
2022-10-13T14:57:15.868Z,5.50
2022-10-13T14:59:43.528Z,4.05
2022-10-13T15:02:13.912Z,4.22
2022-10-13T15:04:52.055Z,4.80
2022-10-13T15:07:19.382Z,4.82
2022-10-13T15:09:53.000Z,4.65
2022-10-13T15:12:28.143Z,4.38
2022-10-13T15:17:21.919Z,4.60
2022-10-13T15:19:48.977Z,4.22
2022-10-13T15:22:15.863Z,3.83
2022-10-13T15:24:43.475Z,5.03
2022-10-13T15:27:10.621Z,5.03
2022-10-13T15:29:37.614Z,4.55
2022-10-13T15:32:13.027Z,4.45
2022-10-13T15:34:41.595Z,3.90
2022-10-13T15:37:08.782Z,4.63
2022-10-13T15:39:35.853Z,5.45
2022-10-13T15:42:03.655Z,4.95
2022-10-13T15:44:57.527Z,4.57
2022-10-13T15:47:23.015Z,4.15
2022-10-13T15:49:52.737Z,4.50
2022-10-13T15:52:20.067Z,4.90
2022-10-13T15:54:51.179Z,4.30
2022-10-13T15:57:18.216Z,4.50
2022-10-13T15:59:45.165Z,5.57
2022-10-13T16:02:12.044Z,5.05
2022-10-13T16:04:38.980Z,4.68
2022-10-13T16:07:05.862Z,4.80
2022-10-13T16:09:32.747Z,6.00
2022-10-13T16:11:59.693Z,5.72
2022-10-13T16:14:26.585Z,7.20
2022-10-13T16:16:53.484Z,5.28
2022-10-13T16:19:20.439Z,6.55
2022-10-13T16:21:47.369Z,6.22
2022-10-13T16:24:14.909Z,6.07
2022-10-13T16:26:41.822Z,7.75
2022-10-13T16:29:08.874Z,7.07
2022-10-13T16:31:35.793Z,7.47
2022-10-13T16:34:02.979Z,6.65
2022-10-13T16:36:29.853Z,7.63
2022-10-13T16:38:58.867Z,6.95
2022-10-13T16:41:25.834Z,8.07
2022-10-13T16:43:53.053Z,7.25
2022-10-13T16:46:20.816Z,6.93
2022-10-13T16:48:48.485Z,8.07
2022-10-13T16:51:21.240Z,7.43
2022-10-13T16:53:49.862Z,7.95
2022-10-13T16:56:22.020Z,8.38
2022-10-13T16:58:50.601Z,7.80
2022-10-13T17:01:17.538Z,9.93
2022-10-13T17:03:45.719Z,8.90
2022-10-13T17:06:14.308Z,8.77
2022-10-13T17:08:42.217Z,9.65
2022-10-13T17:11:14.977Z,9.00
2022-10-13T17:13:41.883Z,8.95
2022-10-13T17:16:08.788Z,9.30
2022-10-13T17:18:38.075Z,8.65
2022-10-13T17:21:10.237Z,6.95
2022-10-13T17:23:37.599Z,7.45
2022-10-13T17:28:36.732Z,5.88
2022-10-13T17:31:11.112Z,7.50
2022-10-13T17:33:39.611Z,7.57
2022-10-13T17:36:10.804Z,7.88
2022-10-13T17:38:37.997Z,6.80
2022-10-13T17:41:07.521Z,7.13
2022-10-13T17:43:36.523Z,6.95
2022-10-13T17:49:02.325Z,6.43
2022-10-13T17:51:29.335Z,6.80
2022-10-13T17:53:59.196Z,6.93
2022-10-13T17:56:26.795Z,5.85
2022-10-13T17:58:54.250Z,6.53
2022-10-13T18:01:42.043Z,5.95
2022-10-13T18:04:14.872Z,6.28
2022-10-13T18:06:45.628Z,6.55
2022-10-13T18:09:18.922Z,5.75
2022-10-13T18:11:50.664Z,5.93
2022-10-13T18:14:20.210Z,6.82
2022-10-13T18:16:49.912Z,5.60
2022-10-13T18:19:16.916Z,5.78
2022-10-13T18:21:43.904Z,5.43
2022-10-13T18:24:11.921Z,5.88
2022-10-13T18:26:39.185Z,6.50
2022-10-13T18:29:08.181Z,6.97
2022-10-13T18:31:40.002Z,6.60
2022-10-13T18:34:10.463Z,6.07
2022-10-13T18:36:40.142Z,6.05
2022-10-13T18:39:16.779Z,6.05
2022-10-13T18:41:47.202Z,6.00
2022-10-13T18:44:14.588Z,6.10
2022-10-13T18:49:12.989Z,5.88
2022-10-13T18:51:42.067Z,6.50
2022-10-13T18:54:12.265Z,6.53
2022-10-13T18:56:40.390Z,6.68
2022-10-13T18:59:09.085Z,7.43
2022-10-13T19:01:37.538Z,5.90
2022-10-13T19:04:05.585Z,6.47
2022-10-13T19:06:33.204Z,6.32
2022-10-13T19:09:03.563Z,6.32
2022-10-13T19:11:31.950Z,7.07
2022-10-13T19:14:00.272Z,6.47
2022-10-13T19:16:29.357Z,8.60
2022-10-13T19:18:56.768Z,8.55
2022-10-13T19:23:51.529Z,5.53
2022-10-13T19:26:24.905Z,6.57
2022-10-13T19:28:57.160Z,6.15
2022-10-13T19:31:27.008Z,5.85
2022-10-13T19:33:55.676Z,5.40
2022-10-13T19:38:56.457Z,5.43
2022-10-13T19:41:24.659Z,6.40
2022-10-13T19:43:51.713Z,5.75
2022-10-13T19:46:18.701Z,5.47
2022-10-13T19:48:46.093Z,6.43
2022-10-13T19:53:41.173Z,5.53
2022-10-13T19:56:08.475Z,5.18
2022-10-13T19:58:36.194Z,5.70
2022-10-13T20:01:05.826Z,5.80
2022-10-13T20:03:32.821Z,6.15
2022-10-13T20:06:04.095Z,6.65
2022-10-13T20:08:31.097Z,6.57
2022-10-13T20:10:58.075Z,5.57
2022-10-13T20:13:25.001Z,6.28
2022-10-13T20:15:53.028Z,6.00
2022-10-13T20:18:20.044Z,6.97
2022-10-13T20:20:47.015Z,7.57
2022-10-13T20:23:14.005Z,6.25
2022-10-13T20:25:40.969Z,7.03
2022-10-13T20:28:07.923Z,7.22
2022-10-13T20:30:34.961Z,6.35
2022-10-13T20:33:02.112Z,6.70
2022-10-13T20:35:30.088Z,6.80
2022-10-13T20:37:58.227Z,7.50
2022-10-13T20:40:25.161Z,7.07
2022-10-13T20:42:52.707Z,7.22
2022-10-13T20:45:20.441Z,7.13
2022-10-13T20:47:48.654Z,7.30
2022-10-13T20:50:15.996Z,6.85
2022-10-13T20:52:42.947Z,7.50
2022-10-13T20:55:10.041Z,8.23
2022-10-13T20:57:37.216Z,7.53
2022-10-13T21:00:05.549Z,6.70
2022-10-13T21:02:32.940Z,8.60
2022-10-13T21:07:28.361Z,7.43
2022-10-13T21:09:55.312Z,8.23
2022-10-13T21:12:22.243Z,7.80
2022-10-13T21:14:49.191Z,8.55
2022-10-13T21:17:16.073Z,8.93
2022-10-13T21:19:42.997Z,7.43
2022-10-13T21:22:09.936Z,8.45
2022-10-13T21:24:37.028Z,9.15
2022-10-13T21:27:03.997Z,8.00
2022-10-13T21:29:30.909Z,8.45
2022-10-13T21:31:58.066Z,7.95
2022-10-13T21:34:25.223Z,7.15
2022-10-13T21:36:54.183Z,6.55
2022-10-13T21:39:21.112Z,6.65
2022-10-13T21:41:47.976Z,8.23
2022-10-13T21:44:14.944Z,7.43
2022-10-13T21:46:42.078Z,6.40
2022-10-13T21:49:09.851Z,6.80
2022-10-13T21:51:40.068Z,7.10
2022-10-13T21:54:12.608Z,6.28
2022-10-13T21:56:41.201Z,5.78
2022-10-13T21:59:09.992Z,6.00
2022-10-13T22:01:36.853Z,5.75
2022-10-13T22:04:11.851Z,5.53
2022-10-13T22:06:38.755Z,6.15
2022-10-13T22:09:06.653Z,6.38
2022-10-13T22:11:36.101Z,6.00
2022-10-13T22:14:10.604Z,6.18
2022-10-13T22:16:43.250Z,5.53
2022-10-13T22:19:10.725Z,5.57
2022-10-13T22:21:41.817Z,5.47
2022-10-13T22:24:11.293Z,5.57
2022-10-13T22:26:41.103Z,6.70
2022-10-13T22:29:10.201Z,5.55
2022-10-13T22:31:38.957Z,5.93
2022-10-13T22:34:09.246Z,6.65
2022-10-13T22:36:39.903Z,5.43
2022-10-13T22:39:10.082Z,5.38
2022-10-13T22:41:37.278Z,6.00
2022-10-13T22:44:04.496Z,6.03
2022-10-13T22:46:34.947Z,5.15
2022-10-13T22:49:01.930Z,6.30
2022-10-13T22:51:31.400Z,6.93
2022-10-13T22:53:58.784Z,6.82
2022-10-13T22:56:28.257Z,7.10
2022-10-13T22:59:01.255Z,7.20
2022-10-13T23:01:28.655Z,6.85
2022-10-13T23:06:29.502Z,6.85
2022-10-13T23:08:59.280Z,6.72
2022-10-13T23:11:26.364Z,7.25
2022-10-13T23:13:53.681Z,5.63
2022-10-13T23:16:22.822Z,7.03
2022-10-13T23:18:49.949Z,7.55
2022-10-13T23:21:26.108Z,7.22
2022-10-13T23:24:01.884Z,8.05
2022-10-13T23:26:29.350Z,6.13
2022-10-13T23:31:24.612Z,7.63
2022-10-13T23:33:51.569Z,7.75
2022-10-13T23:36:21.284Z,7.25
2022-10-13T23:38:48.542Z,7.43
2022-10-13T23:41:16.333Z,7.07
2022-10-13T23:43:43.849Z,8.32
2022-10-13T23:46:11.742Z,7.30
2022-10-13T23:48:39.926Z,6.88
2022-10-13T23:51:12.996Z,7.28
2022-10-13T23:53:41.248Z,7.57
2022-10-13T23:56:09.644Z,7.65
2022-10-13T23:58:38.002Z,8.07
